x

Lake Simcoe (45151) Wave Buoy

12:00am - Tue 27th Sep 2016 All times are CDT. -5 hours from GMT.

  • Sig Wave height 2.0ft
  • Peak Period 4s
  • Wind
    18mph, 20mph gusts
  • Sea Temp 67°f
  • Air Temp 59°f
  • Sea Pressure 1009.9mb
  • Lake Simcoe
  • Lake Simcoe

More Historic Weather Station data

Upgrade to MSW Pro to gain access to the past 30 days of data for over 8000 Wavebouys and Weather Stations around the globe.

Join Pro

Comparision Forecast

View Surf forecast
   
Tue 09/27 12:00am 2ft 4s 18 20 mph 1009.9mb 67f 59f
Mon 09/26 11:00pm 1.6ft 3s 22 27 mph 1010.1mb 67f 60f
10:00pm 1.3ft 3s 18 22 mph 1010.2mb 67f 61f
9:00pm 1.3ft 3s 18 22 mph 1010.6mb 67f 61f
8:00pm 1ft 2s 16 20 mph 1010.7mb 67f 61f
7:00pm 0.7ft 2s 13 16 mph 1010.3mb 67f 61f
6:00pm 1.3ft 3s 11 16 mph 1010.2mb 67f 60f
5:00pm 1.3ft 3s 18 20 mph 1009.9mb 67f 60f
4:00pm 1.3ft 3s 13 16 mph 1009.5mb 67f 62f
3:00pm 2ft 3s 18 22 mph 1010.4mb 67f 60f
2:00pm 1.6ft 3s 18 22 mph 1010mb 67f 59f
1:00pm 1.6ft 3s 18 22 mph 1011mb 67f 59f
12:00pm 1.6ft 3s 18 20 mph 1011.4mb 68f 60f
11:00am 2.5ft 3s 18 20 mph 1012.3mb 68f 61f
10:00am 2.5ft 4s 22 27 mph 1012.2mb 68f 60f
9:00am 2.5ft 4s 22 27 mph 1013.3mb 68f 61f
8:00am 2.5ft 3s 25 29 mph 1013.8mb 68f 60f
7:00am 2ft 3s 22 29 mph 1014.5mb 68f 59f
6:00am 1.6ft 3s 18 20 mph 1015.5mb 68f 58f
5:00am 2ft 3s 18 22 mph 1016mb 68f 58f
4:00am 2ft 3s 22 27 mph 1016.6mb 68f 58f
3:00am 2ft 3s 18 22 mph 1017.5mb 68f 58f
2:00am 2ft 3s 20 22 mph 1018.5mb 68f 59f
1:00am 1.6ft 3s 20 25 mph 1019mb 68f 58f
12:00am 1.6ft 3s 20 22 mph 1019.5mb 68f 59f
Sun 09/25 11:00pm 1.6ft 3s 18 20 mph 1020.3mb 68f 58f
10:00pm 1.3ft 3s 16 18 mph 1021.4mb 68f 58f
9:00pm 1.6ft 3s 16 18 mph 1021.6mb 68f 58f
8:00pm 1ft 2s 16 20 mph 1022mb 68f 58f
7:00pm 0.3ft 2s 16 20 mph 1021.5mb 69f 61f
6:00pm  -  2s 7 9 mph 1021.4mb 69f 62f
5:00pm  -  2s 2 4 mph 1022mb 69f 62f
4:00pm 0.3ft 2s 2
mph
1022.2mb 69f 62f
3:00pm  -  2s  -  2 mph 1023mb 69f 60f
2:00pm 0.3ft 2s  -  2 mph 1023.9mb 69f 59f
1:00pm 0.3ft 2s  -  2 mph 1024.4mb 69f 58f
12:00pm 0.3ft 2s 2 4 mph 1025.4mb 68f 56f
11:00am 0.3ft 2s 4 7 mph 1025.7mb 68f 55f
10:00am 0.7ft 2s 7 9 mph 1026mb 68f 54f
9:00am 0.3ft 2s 9 11 mph 1026mb 68f 53f
8:00am 0.7ft 2s 9 11 mph 1025.9mb 68f 53f
7:00am 0.7ft 2s 9 11 mph 1026mb 68f 53f
6:00am 0.7ft 2s 9 11 mph 1025.4mb 68f 52f
5:00am 0.7ft 2s 11 13 mph 1025.3mb 68f 53f
4:00am 0.7ft 2s 9 11 mph 1025.3mb 68f 53f
3:00am 0.7ft 2s 11 13 mph 1025.3mb 68f 53f
2:00am 1ft 2s 11 13 mph 1025.6mb 68f 53f
1:00am 1ft 2s 13 16 mph 1025.8mb 68f 55f
12:00am 0.7ft 2s 11 13 mph 1025.4mb 68f 56f
Sat 09/24 11:00pm 0.7ft 2s 13 16 mph 1025.2mb 68f 56f
10:00pm 0.7ft 2s 11 13 mph 1024.9mb 68f 58f
9:00pm 0.7ft 2s 11 13 mph 1024.7mb 69f 58f
8:00pm 0.7ft 2s 13 16 mph 1024.4mb 69f 58f
7:00pm 0.7ft 2s 13 16 mph 1024.2mb 69f 59f
6:00pm 0.7ft 2s 11 13 mph 1024.1mb 69f 60f
5:00pm 0.7ft 2s 11 18 mph 1024.1mb 69f 62f
4:00pm 0.3ft 2s 11 16 mph 1024mb 69f 62f
3:00pm 0.3ft 2s 7 11 mph 1024.2mb 69f 62f
2:00pm 0.3ft 2s 9 11 mph 1024.6mb 69f 60f
1:00pm 0.3ft 2s 7 13 mph 1025.1mb 69f 59f
12:00pm 0.3ft 2s 7 13 mph 1025.9mb 69f 58f
11:00am 0.3ft 2s 9 11 mph 1026.6mb 69f 57f
10:00am 0.3ft 2s 7 13 mph 1026.8mb 69f 56f
9:00am 0.7ft 2s 9 11 mph 1027mb 69f 54f
8:00am 0.7ft 2s 7 11 mph 1026.6mb 69f 53f
7:00am 0.7ft 2s 13 16 mph 1026mb 69f 53f
6:00am 0.7ft 2s 13 16 mph 1025.6mb 69f 52f
5:00am 0.7ft 2s 13 18 mph 1025mb 69f 53f
4:00am 1ft 2s 13 18 mph 1024.8mb 69f 53f
3:00am 0.7ft 2s 16 18 mph 1024.5mb 69f 53f
2:00am 0.7ft 2s 11 16 mph 1024.1mb 69f 54f
1:00am 1ft 2s 11 16 mph 1024.1mb 69f 54f
12:00am 1ft 2s 13 18 mph 1023.9mb 69f 54f
Fri 09/23 11:00pm 1.3ft 2s 13 18 mph 1023.7mb 69f 54f
10:00pm 1ft 2s 18 22 mph 1023.8mb 69f 55f
9:00pm 1ft 2s 16 20 mph 1023.8mb 69f 56f
8:00pm 1ft 3s 13 18 mph 1023.3mb 69f 58f
7:00pm 1ft 2s 13 18 mph 1022.6mb 69f 59f
6:00pm 1ft 2s 16 18 mph 1021.9mb 70f 61f
5:00pm 0.3ft 2s 13 16 mph 1021.3mb 70f 62f
4:00pm 0.3ft 2s 7 13 mph 1021.2mb 70f 63f
3:00pm 0.3ft 2s 7 9 mph 1021mb 70f 62f
2:00pm 0.7ft 2s 7 11 mph 1021.6mb 70f 60f
1:00pm 1ft 3s 11 16 mph 1021.7mb 69f 59f
12:00pm 1.3ft 3s 13 18 mph 1022.1mb 69f 57f
11:00am 1.3ft 3s 13 18 mph 1022.2mb 69f 57f
10:00am 1ft 2s 16 22 mph 1022mb 69f 56f
9:00am 1.3ft 3s 18 22 mph 1021.8mb 69f 56f
8:00am 1.3ft 3s 18 20 mph 1021.2mb 70f 56f
7:00am 1.6ft 3s 20 25 mph 1020.4mb 70f 57f